Time;durP1;ratioP1;P1;durP2;ratioP2;P2;SDS_P1;SDS_P2;PMS_P1;PMS_P2;Temp;Humidity;BMP_temperature;BMP_pressure;BME280_temperature;BME280_humidity;BME280_pressure;Samples;Min_cycle;Max_cycle;Signal;HPM_P1;HPM_P2
2021/01/22 00:02:10;;;;;;;0.50;0.40;;;20.30;42.70;;;;;;4808419;29;20062;-68
2021/01/22 00:04:36;;;;;;;1.80;0.40;;;20.30;42.80;;;;;;4824303;29;20411;-68
2021/01/22 00:07:02;;;;;;;0.40;0.10;;;20.30;43.40;;;;;;4823066;29;20040;-68
2021/01/22 00:09:27;;;;;;;0.52;0.20;;;20.20;42.70;;;;;;4824081;29;20038;-68
2021/01/22 00:11:53;;;;;;;0.20;0.20;;;20.30;42.80;;;;;;4823846;29;20046;-69
2021/01/22 00:14:18;;;;;;;0.57;0.25;;;20.20;42.70;;;;;;4822644;29;20027;-68
2021/01/22 00:16:44;;;;;;;0.50;0.30;;;20.20;42.70;;;;;;4823424;29;20074;-68
2021/01/22 00:19:09;;;;;;;0.17;0.10;;;20.20;42.70;;;;;;4805382;29;20125;-68
2021/01/22 00:21:36;;;;;;;0.05;0.05;;;20.20;42.70;;;;;;4807334;29;20396;-68
2021/01/22 00:24:02;;;;;;;0.38;0.20;;;20.20;42.70;;;;;;4834057;29;20121;-68
2021/01/22 00:26:28;;;;;;;0.38;0.20;;;20.20;42.70;;;;;;4823896;29;20503;-68
2021/01/22 00:28:54;;;;;;;0.10;0.10;;;20.10;42.70;;;;;;4807340;29;20072;-68
2021/01/22 00:31:19;;;;;;;1.60;0.28;;;20.10;42.70;;;;;;4824159;29;20056;-68
2021/01/22 00:33:45;;;;;;;0.38;0.38;;;20.10;42.60;;;;;;4809470;29;20049;-68
2021/01/22 00:36:10;;;;;;;0.30;0.30;;;20.20;42.70;;;;;;4791729;29;20046;-68
2021/01/22 00:38:36;;;;;;;0.15;0.15;;;20.20;42.70;;;;;;4824379;29;20103;-68
2021/01/22 00:41:01;;;;;;;0.50;0.50;;;20.20;42.60;;;;;;4823246;29;20110;-68
2021/01/22 00:43:27;;;;;;;0.63;0.40;;;20.20;42.60;;;;;;4807446;29;20049;-68
2021/01/22 00:45:53;;;;;;;0.88;0.40;;;20.10;42.60;;;;;;4823498;29;20141;-68
2021/01/22 00:48:18;;;;;;;0.20;0.20;;;20.20;42.60;;;;;;4812950;29;20034;-69
2021/01/22 00:50:48;;;;;;;0.60;0.43;;;20.10;42.50;;;;;;4812365;29;20034;-68
2021/01/22 00:53:17;;;;;;;0.22;0.22;;;20.20;42.50;;;;;;4806289;29;20411;-68
2021/01/22 00:55:42;;;;;;;0.30;0.17;;;20.10;42.30;;;;;;4807950;29;20031;-68
2021/01/22 00:58:08;;;;;;;0.40;0.40;;;20.20;42.40;;;;;;4823320;29;20163;-70
2021/01/22 01:00:34;;;;;;;0.75;0.47;;;20.10;42.30;;;;;;4822693;29;20500;-70
2021/01/22 01:02:59;;;;;;;0.73;0.63;;;20.10;42.30;;;;;;4807920;29;20038;-68
2021/01/22 01:05:25;;;;;;;0.50;0.50;;;20.10;42.30;;;;;;4807264;29;20038;-70
2021/01/22 01:07:50;;;;;;;1.30;0.80;;;20.10;42.30;;;;;;4823311;29;20045;-68
2021/01/22 01:10:16;;;;;;;0.77;0.50;;;20.10;42.30;;;;;;4824068;29;20423;-68
2021/01/22 01:12:42;;;;;;;1.10;0.32;;;20.10;42.20;;;;;;4791678;29;20044;-70
2021/01/22 01:15:08;;;;;;;0.70;0.60;;;20.10;42.20;;;;;;4824000;29;20056;-70
2021/01/22 01:17:36;;;;;;;1.85;0.73;;;20.00;42.20;;;;;;4823454;29;20460;-68
2021/01/22 01:20:04;;;;;;;0.60;0.60;;;20.10;42.20;;;;;;4821935;29;20031;-70
2021/01/22 01:22:29;;;;;;;0.52;0.52;;;20.10;42.20;;;;;;4792291;29;20507;-69
2021/01/22 01:24:55;;;;;;;0.73;0.68;;;20.00;42.20;;;;;;4807827;29;20090;-70
2021/01/22 01:27:20;;;;;;;1.48;1.00;;;20.00;42.20;;;;;;4806831;29;20041;-69
2021/01/22 01:29:46;;;;;;;0.63;0.63;;;20.00;42.20;;;;;;4825368;29;20047;-70
2021/01/22 01:32:11;;;;;;;1.05;0.80;;;20.00;42.20;;;;;;4823626;29;20038;-69
2021/01/22 01:34:37;;;;;;;0.93;0.55;;;20.00;42.20;;;;;;4823398;29;20031;-69
2021/01/22 01:37:03;;;;;;;2.60;0.70;;;20.00;42.20;;;;;;4803985;29;20107;-69
2021/01/22 01:39:28;;;;;;;0.70;0.57;;;20.00;42.20;;;;;;4803455;29;20034;-69
2021/01/22 01:41:54;;;;;;;1.42;0.70;;;20.00;42.80;;;;;;4829182;29;20598;-70
2021/01/22 01:44:19;;;;;;;0.90;0.73;;;20.00;42.10;;;;;;4834200;29;20110;-69
2021/01/22 01:46:45;;;;;;;0.75;0.75;;;20.00;42.20;;;;;;4822904;29;20030;-69
2021/01/22 01:49:10;;;;;;;0.88;0.77;;;20.00;42.10;;;;;;4807530;29;20415;-70
2021/01/22 01:51:36;;;;;;;0.88;0.70;;;20.00;42.10;;;;;;4791832;29;20030;-70
2021/01/22 01:54:02;;;;;;;1.33;1.23;;;19.90;42.10;;;;;;4823068;29;20043;-69
2021/01/22 01:56:27;;;;;;;0.75;0.73;;;19.90;42.00;;;;;;4807201;29;20022;-69
2021/01/22 01:58:53;;;;;;;0.70;0.55;;;19.90;42.10;;;;;;4791989;29;20507;-69
2021/01/22 02:01:18;;;;;;;0.50;0.50;;;19.90;42.10;;;;;;4806226;29;20027;-69
2021/01/22 02:03:44;;;;;;;0.60;0.60;;;19.90;42.00;;;;;;4804873;29;20117;-68
2021/01/22 02:06:10;;;;;;;0.95;0.50;;;19.90;42.10;;;;;;4806630;29;20034;-70
2021/01/22 02:08:37;;;;;;;0.47;0.45;;;19.90;42.00;;;;;;4806305;29;20487;-68
2021/01/22 02:11:03;;;;;;;0.40;0.40;;;19.90;42.70;;;;;;4794799;29;20107;-68
2021/01/22 02:13:31;;;;;;;0.30;0.30;;;19.90;42.00;;;;;;4810372;29;20474;-72
2021/01/22 02:15:58;;;;;;;1.80;0.30;;;19.90;42.00;;;;;;4795132;29;20041;-70
2021/01/22 02:18:24;;;;;;;0.57;0.40;;;19.90;41.90;;;;;;4795153;29;20054;-69
2021/01/22 02:21:18;;;;;;;0.28;0.13;;;19.90;42.00;;;;;;4801343;29;20042;-69
2021/01/22 02:23:43;;;;;;;1.25;0.30;;;19.90;41.90;;;;;;4824457;29;20030;-69
2021/01/22 02:26:29;;;;;;;3.58;0.40;;;19.90;41.90;;;;;;4795033;29;20037;-69
2021/01/22 02:28:58;;;;;;;0.55;0.20;;;19.90;42.50;;;;;;4826141;29;20043;-69
2021/01/22 02:31:36;;;;;;;0.52;0.30;;;19.90;41.80;;;;;;4795805;29;20110;-69
2021/01/22 02:34:03;;;;;;;0.30;0.20;;;19.90;41.80;;;;;;4810142;29;20661;-69
2021/01/22 02:36:36;;;;;;;0.38;0.20;;;19.90;41.80;;;;;;4794454;29;20027;-69
2021/01/22 02:39:03;;;;;;;1.52;0.45;;;19.90;41.80;;;;;;4795613;29;20037;-69
2021/01/22 02:41:29;;;;;;;2.63;0.30;;;19.90;41.70;;;;;;4825875;29;20042;-69
2021/01/22 02:43:55;;;;;;;0.98;0.30;;;19.80;41.70;;;;;;4795510;29;20440;-69
2021/01/22 02:46:20;;;;;;;0.30;0.30;;;19.80;41.70;;;;;;4795103;29;20118;-69
2021/01/22 02:48:46;;;;;;;1.02;0.30;;;19.80;41.70;;;;;;4794064;29;20066;-69
2021/01/22 02:51:12;;;;;;;0.20;0.20;;;19.80;41.70;;;;;;4795023;29;20026;-69
2021/01/22 02:53:38;;;;;;;0.25;0.25;;;19.80;41.70;;;;;;4815814;29;20113;-69
2021/01/22 02:56:13;;;;;;;1.67;0.25;;;19.80;41.70;;;;;;4809872;29;20043;-69
2021/01/22 02:58:51;;;;;;;0.20;0.20;;;19.80;41.80;;;;;;4794501;29;20030;-69
2021/01/22 03:01:24;;;;;;;0.35;0.32;;;19.80;41.70;;;;;;4794633;29;20117;-70
2021/01/22 03:04:02;;;;;;;0.30;0.30;;;19.80;41.70;;;;;;4794044;29;20078;-69
2021/01/22 03:06:28;;;;;;;0.35;0.30;;;19.80;41.70;;;;;;4793243;29;20033;-69
2021/01/22 03:08:54;;;;;;;1.30;0.32;;;19.80;41.70;;;;;;4794084;29;20030;-69
2021/01/22 03:11:20;;;;;;;0.47;0.40;;;19.80;41.70;;;;;;4811440;29;20380;-69
2021/01/22 03:13:47;;;;;;;0.38;0.28;;;19.80;41.70;;;;;;4794844;29;20091;-69
2021/01/22 03:16:12;;;;;;;0.60;0.50;;;19.70;41.70;;;;;;4793887;29;20034;-69
2021/01/22 03:18:38;;;;;;;2.50;0.40;;;19.70;41.70;;;;;;4808442;29;20070;-69
2021/01/22 03:21:07;;;;;;;0.45;0.45;;;19.70;41.70;;;;;;4825755;29;20034;-70
2021/01/22 03:23:32;;;;;;;0.77;0.43;;;19.70;41.70;;;;;;4806824;29;20061;-70
2021/01/22 03:25:58;;;;;;;2.75;0.93;;;19.70;41.70;;;;;;4809502;29;20541;-70
2021/01/22 03:28:23;;;;;;;1.83;0.82;;;19.70;41.60;;;;;;4809670;29;20403;-70
2021/01/22 03:30:49;;;;;;;0.98;0.88;;;19.70;41.50;;;;;;4808655;29;20035;-70
2021/01/22 03:33:46;;;;;;;1.95;0.82;;;19.70;41.60;;;;;;4793866;29;20109;-70
2021/01/22 03:36:11;;;;;;;1.65;0.98;;;19.70;41.80;;;;;;4825246;29;20035;-70
2021/01/22 03:38:37;;;;;;;1.00;0.65;;;19.70;41.50;;;;;;4825009;29;20096;-70
2021/01/22 03:41:02;;;;;;;4.13;0.98;;;19.70;41.60;;;;;;4794278;29;20427;-70
2021/01/22 03:43:28;;;;;;;2.67;1.20;;;19.70;41.50;;;;;;4778530;29;20030;-77
2021/01/22 03:45:54;;;;;;;3.22;1.55;;;19.70;41.50;;;;;;4778935;29;20516;-79
2021/01/22 03:48:20;;;;;;;1.17;0.90;;;19.70;41.50;;;;;;4807720;29;20054;-81
2021/01/22 03:50:45;;;;;;;0.50;0.40;;;19.70;41.50;;;;;;4825217;29;20046;-76
2021/01/22 03:53:11;;;;;;;2.70;1.55;;;19.70;41.50;;;;;;4809258;29;20027;-80
2021/01/22 03:55:36;;;;;;;2.75;1.70;;;19.70;41.50;;;;;;4808470;29;20046;-79
2021/01/22 03:58:02;;;;;;;2.05;1.50;;;19.70;42.10;;;;;;4824388;29;20034;-69
2021/01/22 04:00:28;;;;;;;3.60;2.00;;;19.70;41.50;;;;;;4808343;29;20038;-69
2021/01/22 04:02:54;;;;;;;3.70;2.30;;;19.70;41.40;;;;;;4824287;29;20045;-69
2021/01/22 04:05:20;;;;;;;5.25;2.42;;;19.70;41.40;;;;;;4824939;29;20044;-69
2021/01/22 04:07:45;;;;;;;4.03;2.28;;;19.70;42.10;;;;;;4810767;29;20100;-69
2021/01/22 04:10:11;;;;;;;3.92;2.25;;;19.60;41.50;;;;;;4821549;29;20416;-69
2021/01/22 04:12:36;;;;;;;4.55;2.28;;;19.60;41.40;;;;;;4824190;29;20026;-69
2021/01/22 04:15:05;;;;;;;4.90;2.72;;;19.60;41.50;;;;;;4823202;29;20088;-69
2021/01/22 04:17:31;;;;;;;3.33;2.22;;;19.60;41.50;;;;;;4805092;29;20042;-69
2021/01/22 04:19:57;;;;;;;1.90;1.65;;;19.60;41.50;;;;;;4806465;29;20054;-69
2021/01/22 04:22:23;;;;;;;2.20;1.45;;;19.60;41.50;;;;;;4821938;29;20437;-69
2021/01/22 04:24:48;;;;;;;1.95;1.45;;;19.60;41.40;;;;;;4819747;29;20041;-69
2021/01/22 04:27:14;;;;;;;2.85;1.95;;;19.60;41.50;;;;;;4817679;29;20030;-69
2021/01/22 04:29:40;;;;;;;3.55;2.03;;;19.60;41.50;;;;;;4821831;29;20041;-69
2021/01/22 04:32:07;;;;;;;3.63;1.92;;;19.60;41.50;;;;;;4804369;29;20041;-69
2021/01/22 04:34:54;;;;;;;2.80;1.95;;;19.60;41.50;;;;;;4807611;29;20113;-69
2021/01/22 04:37:32;;;;;;;4.95;2.28;;;19.50;41.50;;;;;;4819228;29;20303;-69
2021/01/22 04:39:57;;;;;;;5.10;2.08;;;19.50;41.50;;;;;;4824887;29;20066;-69
2021/01/22 04:42:23;;;;;;;3.17;1.33;;;19.50;42.30;;;;;;4809360;29;20080;-69
2021/01/22 04:44:52;;;;;;;4.47;1.88;;;19.50;41.50;;;;;;4791430;29;20054;-69
2021/01/22 04:47:17;;;;;;;3.08;1.80;;;19.50;41.50;;;;;;4823077;29;20030;-69
2021/01/22 04:49:44;;;;;;;3.17;1.70;;;19.50;41.40;;;;;;4807044;29;20112;-69
2021/01/22 04:52:10;;;;;;;2.50;0.95;;;19.50;41.50;;;;;;4806353;29;20716;-69
2021/01/22 04:54:39;;;;;;;2.22;1.67;;;19.60;41.50;;;;;;4824020;29;20042;-69
2021/01/22 04:57:06;;;;;;;1.63;1.50;;;19.50;41.40;;;;;;4792865;29;20030;-70
2021/01/22 04:59:46;;;;;;;3.22;1.90;;;19.60;41.40;;;;;;4792110;29;20090;-70
2021/01/22 05:02:12;;;;;;;0.28;0.28;;;19.60;41.40;;;;;;4794137;29;20039;-69
2021/01/22 05:04:38;;;;;;;0.20;0.10;;;19.60;41.30;;;;;;4806435;29;20177;-70
2021/01/22 05:07:04;;;;;;;0.30;0.30;;;19.60;41.40;;;;;;4791929;29;20109;-69
2021/01/22 05:09:30;;;;;;;0.20;0.15;;;19.60;41.40;;;;;;4792181;29;20240;-69
2021/01/22 05:11:55;;;;;;;0.50;0.30;;;19.70;41.40;;;;;;4807407;29;20031;-69
2021/01/22 05:14:21;;;;;;;0.10;0.10;;;19.70;41.30;;;;;;4805980;29;20031;-69
2021/01/22 05:17:07;;;;;;;0.10;0.10;;;19.80;41.10;;;;;;4790905;29;20046;-70
2021/01/22 05:19:36;;;;;;;0.10;0.10;;;19.80;41.00;;;;;;4806519;29;20054;-69
2021/01/22 05:22:02;;;;;;;2.08;0.10;;;19.90;41.00;;;;;;4807531;29;20083;-69
2021/01/22 05:24:28;;;;;;;1.23;0.30;;;19.90;40.80;;;;;;4790863;29;20038;-69
2021/01/22 05:27:11;;;;;;;0.15;0.13;;;20.00;40.70;;;;;;4823170;29;20407;-69
2021/01/22 05:29:37;;;;;;;0.25;0.10;;;20.10;40.70;;;;;;4825571;29;20039;-69
2021/01/22 05:32:23;;;;;;;0.68;0.20;;;20.10;41.00;;;;;;4806711;29;20499;-69
2021/01/22 05:34:48;;;;;;;0.30;0.20;;;20.10;40.50;;;;;;4809566;29;20074;-69
2021/01/22 05:37:14;;;;;;;0.20;0.10;;;20.20;40.40;;;;;;4805690;29;20042;-70
2021/01/22 05:39:39;;;;;;;0.10;0.10;;;20.20;40.30;;;;;;4820509;29;20038;-69
2021/01/22 05:42:07;;;;;;;0.20;0.20;;;20.30;40.30;;;;;;4822730;29;20408;-69
2021/01/22 05:44:33;;;;;;;0.10;0.10;;;20.30;40.20;;;;;;4821874;29;20035;-69
2021/01/22 05:47:08;;;;;;;0.10;0.10;;;20.40;40.20;;;;;;4822792;29;20041;-69
2021/01/22 05:49:45;;;;;;;0.25;0.20;;;20.40;40.10;;;;;;4822167;29;20091;-69
2021/01/22 05:52:19;;;;;;;0.75;0.20;;;20.40;40.00;;;;;;4792518;29;20090;-69
2021/01/22 05:54:45;;;;;;;0.43;0.38;;;20.40;40.00;;;;;;4805672;29;20077;-69
2021/01/22 05:57:11;;;;;;;1.55;0.22;;;20.40;40.00;;;;;;4823188;29;20073;-69
2021/01/22 05:59:36;;;;;;;0.20;0.10;;;20.50;39.90;;;;;;4822526;29;20046;-69
2021/01/22 06:02:28;;;;;;;0.20;0.20;;;20.50;39.90;;;;;;4821962;29;20454;-69
2021/01/22 06:05:13;;;;;;;0.10;0.10;;;20.50;39.90;;;;;;4823372;29;20027;-69
2021/01/22 06:07:41;;;;;;;0.50;0.15;;;20.50;39.80;;;;;;4789936;29;20053;-69
2021/01/22 06:10:22;;;;;;;0.22;0.20;;;20.50;39.80;;;;;;4820970;29;20110;-69
2021/01/22 06:12:48;;;;;;;0.25;0.10;;;20.50;39.80;;;;;;4805007;29;20046;-69
2021/01/22 06:15:15;;;;;;;0.10;0.10;;;20.50;39.80;;;;;;4806415;29;20102;-69
2021/01/22 06:17:41;;;;;;;0.20;0.10;;;20.50;39.80;;;;;;4806281;29;20054;-69
2021/01/22 06:20:21;;;;;;;0.20;0.10;;;20.60;39.80;;;;;;4791218;29;20046;-69
2021/01/22 06:23:09;;;;;;;0.15;0.10;;;20.60;39.80;;;;;;4822684;29;20430;-69
2021/01/22 06:25:35;;;;;;;0.20;0.20;;;20.60;39.80;;;;;;4791978;29;20030;-69
2021/01/22 06:28:04;;;;;;;0.32;0.20;;;20.60;39.70;;;;;;4807638;29;20070;-69
2021/01/22 06:30:32;;;;;;;0.20;0.00;;;20.60;39.80;;;;;;4789156;29;20053;-69
2021/01/22 06:33:01;;;;;;;0.00;0.00;;;20.60;39.70;;;;;;4805910;29;20083;-69
2021/01/22 06:35:31;;;;;;;0.50;0.25;;;20.60;39.70;;;;;;4806330;29;20138;-69
2021/01/22 06:37:57;;;;;;;0.20;0.10;;;20.60;39.70;;;;;;4791448;29;20058;-75
2021/01/22 06:40:23;;;;;;;1.65;0.25;;;20.60;39.60;;;;;;4820708;29;20462;-76
2021/01/22 06:42:48;;;;;;;0.47;0.20;;;20.60;39.70;;;;;;4805924;29;20018;-75
2021/01/22 06:45:14;;;;;;;0.10;0.10;;;20.60;40.40;;;;;;4822397;29;20499;-76
2021/01/22 06:47:40;;;;;;;0.10;0.10;;;20.60;39.80;;;;;;4778457;29;20237;-76
2021/01/22 06:50:21;;;;;;;0.00;0.00;;;20.60;39.70;;;;;;4805238;29;20499;-76
2021/01/22 06:53:05;;;;;;;0.22;0.10;;;20.60;39.60;;;;;;4806691;29;20043;-75
2021/01/22 06:55:31;;;;;;;0.38;0.10;;;20.60;39.70;;;;;;4821663;29;20030;-75
2021/01/22 06:58:22;;;;;;;0.20;0.20;;;20.70;39.70;;;;;;4793982;29;20037;-75
2021/01/22 07:00:47;;;;;;;0.10;0.10;;;20.60;39.60;;;;;;4824916;29;20522;-77
2021/01/22 07:03:35;;;;;;;0.95;0.30;;;20.70;39.60;;;;;;4809260;29;20026;-75
2021/01/22 07:06:01;;;;;;;0.10;0.10;;;20.70;39.70;;;;;;4823680;29;20482;-77
2021/01/22 07:08:51;;;;;;;1.13;0.25;;;20.70;39.70;;;;;;4825860;29;20049;-76
2021/01/22 07:11:16;;;;;;;0.10;0.00;;;20.70;39.70;;;;;;4824481;29;20030;-75
2021/01/22 07:13:43;;;;;;;0.50;0.17;;;20.70;39.70;;;;;;4807898;29;20043;-76
2021/01/22 07:16:26;;;;;;;0.30;0.10;;;20.70;39.70;;;;;;4794348;29;20079;-76
2021/01/22 07:18:56;;;;;;;0.15;0.10;;;20.60;39.70;;;;;;4808526;29;20090;-76
2021/01/22 07:21:38;;;;;;;0.30;0.20;;;20.60;39.70;;;;;;4794062;29;20037;-76
2021/01/22 07:24:12;;;;;;;0.20;0.20;;;20.60;39.80;;;;;;4825326;29;20033;-76
2021/01/22 07:26:48;;;;;;;0.20;0.10;;;20.60;39.80;;;;;;4823781;29;20035;-77
2021/01/22 07:29:20;;;;;;;0.40;0.20;;;20.60;39.90;;;;;;4793330;29;20057;-76
2021/01/22 07:32:03;;;;;;;0.55;0.30;;;20.60;39.80;;;;;;4824031;29;20086;-76
2021/01/22 07:34:52;;;;;;;0.65;0.30;;;20.60;39.80;;;;;;4807587;29;20464;-77
2021/01/22 07:37:22;;;;;;;0.10;0.10;;;20.60;39.80;;;;;;4809205;29;20385;-69
2021/01/22 07:39:49;;;;;;;0.20;0.20;;;20.60;39.80;;;;;;4805824;29;20096;-69
2021/01/22 07:42:15;;;;;;;0.20;0.20;;;20.60;39.90;;;;;;4793195;29;20057;-69
2021/01/22 07:44:46;;;;;;;2.78;0.28;;;20.60;39.90;;;;;;4824726;29;20030;-69
2021/01/22 07:47:23;;;;;;;0.10;0.10;;;20.60;39.90;;;;;;4792554;29;20470;-69
2021/01/22 07:49:56;;;;;;;0.65;0.22;;;20.60;39.80;;;;;;4823614;29;20034;-69
2021/01/22 07:52:21;;;;;;;0.98;0.40;;;20.60;39.80;;;;;;4824845;29;20403;-69
2021/01/22 07:54:47;;;;;;;1.83;0.17;;;20.60;39.80;;;;;;4825075;29;20041;-68
2021/01/22 07:57:20;;;;;;;3.10;0.30;;;20.60;39.80;;;;;;4793628;29;20034;-69
2021/01/22 07:59:46;;;;;;;0.25;0.20;;;20.60;39.70;;;;;;4810194;29;20047;-69
2021/01/22 08:02:16;;;;;;;0.20;0.20;;;20.60;39.70;;;;;;4823881;29;20111;-69
2021/01/22 08:04:42;;;;;;;1.75;0.28;;;20.60;39.70;;;;;;4822721;29;20065;-69
2021/01/22 08:07:08;;;;;;;4.97;0.30;;;20.60;39.80;;;;;;4807810;29;20058;-69
2021/01/22 08:09:33;;;;;;;0.20;0.17;;;20.60;39.80;;;;;;4825197;29;20033;-69
2021/01/22 08:12:09;;;;;;;0.10;0.10;;;20.60;39.70;;;;;;4824857;29;20041;-69
2021/01/22 08:14:35;;;;;;;0.20;0.20;;;20.60;39.60;;;;;;4823659;29;20026;-69
2021/01/22 08:17:02;;;;;;;0.22;0.10;;;20.70;39.70;;;;;;4823795;29;20042;-69
2021/01/22 08:19:28;;;;;;;0.15;0.15;;;20.70;39.70;;;;;;4822468;29;20495;-69
2021/01/22 08:21:53;;;;;;;0.47;0.20;;;20.70;39.70;;;;;;4792312;29;20041;-69
2021/01/22 08:24:20;;;;;;;0.57;0.20;;;20.70;39.60;;;;;;4793562;29;20039;-68
2021/01/22 08:26:47;;;;;;;0.22;0.20;;;20.70;39.50;;;;;;4806915;29;20030;-68
2021/01/22 08:29:12;;;;;;;1.75;0.28;;;20.80;39.50;;;;;;4806505;29;20407;-68
2021/01/22 08:31:38;;;;;;;0.55;0.25;;;20.80;39.40;;;;;;4821165;29;20026;-69
2021/01/22 08:34:04;;;;;;;0.10;0.10;;;20.80;39.30;;;;;;4806744;29;20058;-68
2021/01/22 08:36:29;;;;;;;0.55;0.20;;;20.80;39.30;;;;;;4793420;29;20119;-69
2021/01/22 08:38:58;;;;;;;0.10;0.10;;;20.80;39.30;;;;;;4806117;29;20435;-68
2021/01/22 08:41:27;;;;;;;0.28;0.20;;;20.80;39.30;;;;;;4822187;29;20110;-68
2021/01/22 08:43:53;;;;;;;0.40;0.40;;;20.80;39.40;;;;;;4825973;29;21585;-68
2021/01/22 08:46:31;;;;;;;0.30;0.30;;;20.80;39.40;;;;;;4801826;29;20022;-68
2021/01/22 08:48:57;;;;;;;0.55;0.30;;;20.80;39.40;;;;;;4800357;29;20123;-68
2021/01/22 08:51:29;;;;;;;1.13;0.40;;;20.80;39.40;;;;;;4814629;29;20030;-68
2021/01/22 08:53:56;;;;;;;0.30;0.17;;;20.80;39.40;;;;;;4807692;29;20046;-68
2021/01/22 08:56:22;;;;;;;0.40;0.20;;;20.80;39.40;;;;;;4792355;29;20398;-68
2021/01/22 08:59:04;;;;;;;0.10;0.10;;;20.80;39.40;;;;;;4802525;29;20049;-68
2021/01/22 09:01:45;;;;;;;0.20;0.20;;;20.90;39.30;;;;;;4815398;29;20105;-68
2021/01/22 09:04:21;;;;;;;0.70;0.20;;;20.90;39.30;;;;;;4829410;29;20472;-73
2021/01/22 09:06:52;;;;;;;0.20;0.13;;;20.90;39.20;;;;;;4819895;29;20093;-72
2021/01/22 09:09:50;;;;;;;0.10;0.10;;;21.00;39.10;;;;;;4792986;29;20117;-72
2021/01/22 09:12:19;;;;;;;0.10;0.10;;;21.00;39.00;;;;;;4805502;29;20575;-71
2021/01/22 09:15:04;;;;;;;0.50;0.30;;;21.10;39.00;;;;;;4822939;29;20041;-71
2021/01/22 09:17:37;;;;;;;0.10;0.10;;;21.10;38.80;;;;;;4806805;29;20518;-72
2021/01/22 09:20:12;;;;;;;0.90;0.20;;;21.10;38.60;;;;;;4800757;29;20349;-72
2021/01/22 09:22:38;;;;;;;0.25;0.25;;;21.10;38.60;;;;;;4824187;29;20041;-71
2021/01/22 09:25:05;;;;;;;1.02;0.30;;;21.10;38.50;;;;;;4822577;29;20030;-71
2021/01/22 09:27:32;;;;;;;0.10;0.10;;;21.10;38.50;;;;;;4790836;29;20447;-71
2021/01/22 09:29:58;;;;;;;2.45;0.40;;;21.10;38.50;;;;;;4801773;29;20030;-72
2021/01/22 09:32:23;;;;;;;0.30;0.20;;;21.00;38.40;;;;;;4822825;29;20115;-71
2021/01/22 09:34:49;;;;;;;0.90;0.65;;;21.00;38.40;;;;;;4823950;29;20122;-71
2021/01/22 09:37:14;;;;;;;1.88;0.47;;;20.90;38.60;;;;;;4805754;29;20129;-70
2021/01/22 09:39:40;;;;;;;0.17;0.17;;;20.90;38.50;;;;;;4806098;29;20038;-82
2021/01/22 09:42:06;;;;;;;6.88;0.40;;;20.90;38.60;;;;;;4787111;29;20035;-80
2021/01/22 09:44:32;;;;;;;0.10;0.10;;;20.90;38.60;;;;;;4791988;29;20133;-79
2021/01/22 09:46:57;;;;;;;0.32;0.20;;;20.90;38.60;;;;;;4794710;29;20065;-79
2021/01/22 09:49:23;;;;;;;0.57;0.20;;;20.80;38.60;;;;;;4822175;29;20050;-82
2021/01/22 09:51:49;;;;;;;0.45;0.28;;;20.80;38.70;;;;;;4812213;29;20106;-84
2021/01/22 09:54:14;;;;;;;5.00;0.85;;;20.80;38.70;;;;;;4806998;29;20507;-83
2021/01/22 09:56:40;;;;;;;0.30;0.20;;;20.80;38.70;;;;;;4822875;29;20045;-82
2021/01/22 09:59:09;;;;;;;0.32;0.15;;;20.80;38.90;;;;;;4803887;29;20026;-82
2021/01/22 10:01:35;;;;;;;1.10;0.30;;;20.80;38.90;;;;;;4775870;29;20476;-83
2021/01/22 10:04:01;;;;;;;2.38;0.40;;;20.80;39.00;;;;;;4821953;29;20062;-84
2021/01/22 10:06:26;;;;;;;0.30;0.30;;;20.70;39.00;;;;;;4822779;29;20479;-83
2021/01/22 10:08:52;;;;;;;0.40;0.20;;;20.70;39.10;;;;;;4805553;29;20043;-83
2021/01/22 10:11:18;;;;;;;0.30;0.28;;;20.70;39.10;;;;;;4805195;29;20030;-83
2021/01/22 10:13:43;;;;;;;2.53;0.63;;;20.70;39.20;;;;;;4814936;29;20027;-82
2021/01/22 10:16:09;;;;;;;1.13;0.50;;;20.70;39.20;;;;;;4806077;29;20133;-83
2021/01/22 10:18:34;;;;;;;0.30;0.30;;;20.70;39.20;;;;;;4831311;29;20060;-83
2021/01/22 10:21:00;;;;;;;0.70;0.35;;;20.70;39.10;;;;;;4822801;29;20046;-82
2021/01/22 10:23:25;;;;;;;0.90;0.43;;;20.70;39.00;;;;;;4822911;29;20030;-82
2021/01/22 10:25:51;;;;;;;1.00;0.38;;;20.70;39.00;;;;;;4821657;29;20539;-82
2021/01/22 10:28:16;;;;;;;1.27;0.45;;;20.70;38.90;;;;;;4821290;29;20047;-83
2021/01/22 10:30:43;;;;;;;3.35;0.68;;;20.70;38.90;;;;;;4805761;29;20034;-81
2021/01/22 10:33:08;;;;;;;0.52;0.47;;;20.70;38.80;;;;;;4810151;29;20092;-83
2021/01/22 10:35:37;;;;;;;0.30;0.30;;;20.80;38.70;;;;;;4826452;29;20038;-81
2021/01/22 10:38:06;;;;;;;1.60;0.20;;;20.80;38.70;;;;;;4809315;29;20079;-80
2021/01/22 10:40:32;;;;;;;0.63;0.40;;;20.80;38.70;;;;;;4808369;29;20037;-76
2021/01/22 10:42:57;;;;;;;0.47;0.40;;;20.80;38.70;;;;;;4809486;29;20403;-78
2021/01/22 10:45:54;;;;;;;1.20;0.47;;;20.80;38.60;;;;;;4825886;29;20034;-75
2021/01/22 10:48:19;;;;;;;1.27;0.65;;;20.80;38.70;;;;;;4825507;29;20030;-76
2021/01/22 10:50:46;;;;;;;1.17;0.40;;;20.80;38.70;;;;;;4824591;29;20034;-77
2021/01/22 10:53:12;;;;;;;0.30;0.30;;;20.80;38.70;;;;;;4824965;29;20032;-76
2021/01/22 10:55:37;;;;;;;1.00;0.60;;;20.80;38.70;;;;;;4825387;29;20038;-76
2021/01/22 10:58:34;;;;;;;0.25;0.20;;;20.80;38.70;;;;;;4808523;29;20034;-75
2021/01/22 11:01:00;;;;;;;0.30;0.30;;;20.80;38.70;;;;;;4815123;29;20034;-77
2021/01/22 11:03:30;;;;;;;0.50;0.40;;;20.80;38.80;;;;;;4794150;29;20415;-75
2021/01/22 11:05:56;;;;;;;1.15;0.50;;;20.80;38.80;;;;;;4795199;29;20180;-77
2021/01/22 11:08:21;;;;;;;0.28;0.28;;;20.70;38.80;;;;;;4809260;29;20098;-78
2021/01/22 11:10:47;;;;;;;2.13;0.68;;;20.70;39.40;;;;;;4808165;29;20572;-76
2021/01/22 11:13:12;;;;;;;4.38;0.50;;;20.70;38.80;;;;;;4794099;29;20522;-77
2021/01/22 11:15:38;;;;;;;2.10;0.75;;;20.70;38.90;;;;;;4824579;29;20026;-77
2021/01/22 11:18:04;;;;;;;1.08;0.68;;;20.70;38.90;;;;;;4807785;29;20125;-78
2021/01/22 11:20:30;;;;;;;0.30;0.30;;;20.70;38.90;;;;;;4812434;29;20046;-78
2021/01/22 11:22:55;;;;;;;1.08;0.47;;;20.70;39.00;;;;;;4825593;29;20023;-77
2021/01/22 11:25:23;;;;;;;0.80;0.40;;;20.60;39.00;;;;;;4824379;29;20470;-78
2021/01/22 11:27:49;;;;;;;0.95;0.70;;;20.60;38.90;;;;;;4794398;29;20042;-77
2021/01/22 11:30:15;;;;;;;0.75;0.65;;;20.60;38.90;;;;;;4805747;29;20054;-78
2021/01/22 11:32:41;;;;;;;0.90;0.45;;;20.70;39.00;;;;;;4824862;29;20030;-77
2021/01/22 11:35:10;;;;;;;0.20;0.20;;;20.70;39.00;;;;;;4794292;29;20121;-78
2021/01/22 11:37:37;;;;;;;0.35;0.10;;;20.70;39.00;;;;;;4824088;29;20581;-76
2021/01/22 11:40:15;;;;;;;0.75;0.60;;;20.70;38.90;;;;;;4807480;29;20039;-78
2021/01/22 11:42:41;;;;;;;0.60;0.40;;;20.70;39.00;;;;;;4816496;29;20053;-77
2021/01/22 11:45:07;;;;;;;0.88;0.40;;;20.70;39.10;;;;;;4807859;29;20121;-76
2021/01/22 11:47:33;;;;;;;3.30;0.38;;;20.70;38.90;;;;;;4824544;29;21730;-77
2021/01/22 11:50:17;;;;;;;0.75;0.52;;;20.80;39.00;;;;;;4823997;29;20038;-76
2021/01/22 11:52:44;;;;;;;0.32;0.32;;;20.80;38.90;;;;;;4818454;29;20504;-76
2021/01/22 11:55:11;;;;;;;0.35;0.25;;;20.90;38.80;;;;;;4816941;29;20034;-78
2021/01/22 11:57:37;;;;;;;0.30;0.30;;;21.00;38.70;;;;;;4814700;29;20035;-77
2021/01/22 12:00:03;;;;;;;0.30;0.22;;;21.00;38.60;;;;;;4824835;29;20045;-76
2021/01/22 12:02:29;;;;;;;0.40;0.30;;;21.10;38.50;;;;;;4823857;29;20095;-76
2021/01/22 12:04:54;;;;;;;0.77;0.55;;;21.10;38.50;;;;;;4824279;29;20067;-77
2021/01/22 12:07:20;;;;;;;2.05;0.50;;;21.10;39.00;;;;;;4822252;29;20026;-77
2021/01/22 12:09:46;;;;;;;0.73;0.45;;;21.10;38.40;;;;;;4812062;29;20030;-75
2021/01/22 12:12:11;;;;;;;2.20;0.40;;;21.20;38.40;;;;;;4816134;29;20600;-76
2021/01/22 12:14:37;;;;;;;0.85;0.40;;;21.20;38.30;;;;;;4814532;29;20042;-77
2021/01/22 12:17:06;;;;;;;1.95;0.50;;;21.20;38.20;;;;;;4807315;29;20048;-76
2021/01/22 12:19:31;;;;;;;1.35;0.60;;;21.20;38.30;;;;;;4822578;29;20034;-77
2021/01/22 12:21:57;;;;;;;0.57;0.35;;;21.20;38.40;;;;;;4821132;29;20038;-77
2021/01/22 12:24:22;;;;;;;2.33;0.80;;;21.20;38.40;;;;;;4820456;29;20097;-77
2021/01/22 12:26:48;;;;;;;0.40;0.40;;;21.20;38.50;;;;;;4813850;29;20406;-76
2021/01/22 12:29:14;;;;;;;0.43;0.43;;;21.20;38.50;;;;;;4819509;29;20091;-77
2021/01/22 12:31:39;;;;;;;0.47;0.47;;;21.20;38.50;;;;;;4821682;29;20038;-77
2021/01/22 12:34:06;;;;;;;1.33;0.63;;;21.20;38.70;;;;;;4804322;29;20049;-77
2021/01/22 12:36:31;;;;;;;2.28;0.63;;;21.20;39.60;;;;;;4806741;29;20030;-77
2021/01/22 12:38:57;;;;;;;0.95;0.52;;;21.20;38.90;;;;;;4822242;29;20510;-77
2021/01/22 12:41:22;;;;;;;1.08;0.60;;;21.20;38.80;;;;;;4807301;29;20034;-77
2021/01/22 12:43:48;;;;;;;0.70;0.50;;;21.20;38.80;;;;;;4808369;29;20126;-77
2021/01/22 12:46:14;;;;;;;2.47;0.82;;;21.20;38.90;;;;;;4820383;29;20031;-76
2021/01/22 12:48:40;;;;;;;2.55;0.32;;;21.10;38.60;;;;;;4826556;29;20030;-78
2021/01/22 12:51:05;;;;;;;0.60;0.60;;;21.10;38.40;;;;;;4823592;29;20033;-78
2021/01/22 12:53:31;;;;;;;1.90;0.60;;;21.10;38.60;;;;;;4790655;29;20061;-78
2021/01/22 12:55:56;;;;;;;2.80;0.70;;;21.10;38.60;;;;;;4822902;29;20086;-78